Time,TemperatureF,DewpointF,PressureIn,WindDirection,WindDirectionDegrees,WindSpeedMPH,WindSpeedGustMPH,Humidity,HourlyPrecipIn,Conditions,Clouds,dailyrainin,SolarRadiationWatts/m^2,SoftwareType,DateUTC
2013-04-30 00:13:00,71.7,20.0,29.53,SW,232,0.0,0.0,14,0.00,,,0.00,0,weatherlink.com 1.10,2013-04-30 06:13:00,
2013-04-30 00:28:00,71.1,18.0,29.53,SW,232,0.0,0.0,13,0.00,,,0.00,0,weatherlink.com 1.10,2013-04-30 06:28:00,
2013-04-30 00:43:00,70.3,17.0,29.54,SW,232,0.0,0.0,13,0.00,,,0.00,0,weatherlink.com 1.10,2013-04-30 06:43:00,
2013-04-30 00:58:00,70.5,17.0,29.54,SW,232,0.0,0.0,13,0.00,,,0.00,0,weatherlink.com 1.10,2013-04-30 06:58:00,
2013-04-30 01:13:00,70.6,17.0,29.54,SW,232,0.0,0.0,13,0.00,,,0.00,0,weatherlink.com 1.10,2013-04-30 07:13:00,
2013-04-30 01:28:00,70.3,17.0,29.54,SW,232,0.0,0.0,13,0.00,,,0.00,0,weatherlink.com 1.10,2013-04-30 07:28:00,
2013-04-30 01:43:00,69.4,16.0,29.54,SW,232,0.0,0.0,13,0.00,,,0.00,0,weatherlink.com 1.10,2013-04-30 07:43:00,
2013-04-30 01:58:00,68.7,16.0,29.54,SW,232,0.0,0.0,13,0.00,,,0.00,0,weatherlink.com 1.10,2013-04-30 07:58:00,
2013-04-30 02:13:00,68.2,17.0,29.54,SW,232,0.0,0.0,14,0.00,,,0.00,0,weatherlink.com 1.10,2013-04-30 08:13:00,
2013-04-30 02:28:00,67.2,16.0,29.53,SW,232,0.0,0.0,14,0.00,,,0.00,0,weatherlink.com 1.10,2013-04-30 08:28:00,
2013-04-30 02:43:00,67.2,16.0,29.53,SW,232,0.0,0.0,14,0.00,,,0.00,0,weatherlink.com 1.10,2013-04-30 08:43:00,
2013-04-30 02:58:00,67.0,16.0,29.53,SW,232,0.0,0.0,14,0.00,,,0.00,0,weatherlink.com 1.10,2013-04-30 08:58:00,
2013-04-30 03:13:00,67.2,16.0,29.52,SW,232,0.0,0.0,14,0.00,,,0.00,0,weatherlink.com 1.10,2013-04-30 09:13:00,
2013-04-30 03:28:00,67.6,17.0,29.53,SW,232,0.0,0.0,14,0.00,,,0.00,0,weatherlink.com 1.10,2013-04-30 09:28:00,
2013-04-30 03:43:00,67.1,16.0,29.53,SW,232,0.0,0.0,14,0.00,,,0.00,0,weatherlink.com 1.10,2013-04-30 09:43:00,
2013-04-30 03:58:00,66.2,15.0,29.53,SW,232,0.0,0.0,14,0.00,,,0.00,0,weatherlink.com 1.10,2013-04-30 09:58:00,
2013-04-30 04:13:00,65.4,15.0,29.54,SW,232,0.0,0.0,14,0.00,,,0.00,0,weatherlink.com 1.10,2013-04-30 10:13:00,
2013-04-30 04:28:00,65.1,16.0,29.54,SW,232,0.0,0.0,15,0.00,,,0.00,0,weatherlink.com 1.10,2013-04-30 10:28:00,
2013-04-30 04:43:00,65.0,16.0,29.54,SW,232,0.0,0.0,15,0.00,,,0.00,0,weatherlink.com 1.10,2013-04-30 10:43:00,
2013-04-30 04:58:00,64.8,16.0,29.54,SW,232,0.0,0.0,15,0.00,,,0.00,0,weatherlink.com 1.10,2013-04-30 10:58:00,
2013-04-30 05:13:00,64.9,17.0,29.55,SW,232,0.0,0.0,16,0.00,,,0.00,0,weatherlink.com 1.10,2013-04-30 11:13:00,
2013-04-30 05:29:00,65.0,18.0,29.55,SW,232,0.0,0.0,16,0.00,,,0.00,0,weatherlink.com 1.10,2013-04-30 11:29:00,
2013-04-30 05:44:00,66.1,18.0,29.55,SW,232,2.0,2.0,16,0.00,,,0.00,0,weatherlink.com 1.10,2013-04-30 11:44:00,
2013-04-30 05:59:00,66.6,19.0,29.56,SW,232,3.0,5.0,16,0.00,,,0.00,0,weatherlink.com 1.10,2013-04-30 11:59:00,
2013-04-30 06:14:00,68.3,19.0,29.56,SW,233,1.0,12.0,15,0.00,,,0.00,0,weatherlink.com 1.10,2013-04-30 12:14:00,
2013-04-30 06:29:00,68.5,19.0,29.57,WSW,237,2.0,11.0,15,0.00,,,0.00,9,weatherlink.com 1.10,2013-04-30 12:29:00,
2013-04-30 06:44:00,68.8,19.0,29.57,SW,236,2.0,11.0,15,0.00,,,0.00,19,weatherlink.com 1.10,2013-04-30 12:44:00,
2013-04-30 06:59:00,69.5,20.0,29.58,SW,236,3.0,10.0,15,0.00,,,0.00,28,weatherlink.com 1.10,2013-04-30 12:59:00,
2013-04-30 07:14:00,70.7,21.0,29.57,SW,236,1.0,9.0,15,0.00,,,0.00,90,weatherlink.com 1.10,2013-04-30 13:14:00,
2013-04-30 07:29:00,71.6,23.0,29.57,SW,236,0.0,2.0,16,0.00,,,0.00,141,weatherlink.com 1.10,2013-04-30 13:29:00,
2013-04-30 07:44:00,72.3,24.0,29.58,SW,236,0.0,5.0,16,0.00,,,0.00,197,weatherlink.com 1.10,2013-04-30 13:44:00,
2013-04-30 07:59:00,72.9,23.0,29.59,SW,236,1.0,2.0,15,0.00,,,0.00,246,weatherlink.com 1.10,2013-04-30 13:59:00,
2013-04-30 08:14:00,73.1,23.0,29.59,SW,236,1.0,3.0,15,0.00,,,0.00,294,weatherlink.com 1.10,2013-04-30 14:14:00,
2013-04-30 08:29:00,74.9,24.0,29.60,SW,236,1.0,2.0,15,0.00,,,0.00,346,weatherlink.com 1.10,2013-04-30 14:29:00,
2013-04-30 08:44:00,74.8,24.0,29.60,SW,236,0.0,4.0,15,0.00,,,0.00,397,weatherlink.com 1.10,2013-04-30 14:44:00,
2013-04-30 08:59:00,76.3,24.0,29.60,SW,236,3.0,3.0,14,0.00,,,0.00,443,weatherlink.com 1.10,2013-04-30 14:59:00,
2013-04-30 09:14:00,77.5,25.0,29.60,SW,236,0.0,3.0,14,0.00,,,0.00,492,weatherlink.com 1.10,2013-04-30 15:14:00,
2013-04-30 09:29:00,78.9,24.0,29.59,SW,236,1.0,2.0,13,0.00,,,0.00,540,weatherlink.com 1.10,2013-04-30 15:29:00,
2013-04-30 09:44:00,79.2,28.0,29.59,SW,236,0.0,2.0,15,0.00,,,0.00,585,weatherlink.com 1.10,2013-04-30 15:44:00,
2013-04-30 10:00:00,80.1,25.0,29.59,SW,236,3.0,5.0,13,0.00,,,0.00,629,weatherlink.com 1.10,2013-04-30 16:00:00,
2013-04-30 10:15:00,81.1,26.0,29.59,SW,233,6.0,13.0,13,0.00,,,0.00,670,weatherlink.com 1.10,2013-04-30 16:15:00,
2013-04-30 10:30:00,82.0,26.0,29.59,WSW,238,9.0,9.0,13,0.00,,,0.00,710,weatherlink.com 1.10,2013-04-30 16:30:00,
2013-04-30 10:45:00,81.8,26.0,29.59,SW,233,7.0,11.0,13,0.00,,,0.00,747,weatherlink.com 1.10,2013-04-30 16:45:00,
2013-04-30 11:00:00,83.2,25.0,29.59,SW,232,1.0,9.0,12,0.00,,,0.00,780,weatherlink.com 1.10,2013-04-30 17:00:00,
2013-04-30 11:15:00,84.8,27.0,29.59,SW,227,3.0,10.0,12,0.00,,,0.00,809,weatherlink.com 1.10,2013-04-30 17:15:00,
2013-04-30 11:30:00,87.3,29.0,29.58,WSW,248,3.0,8.0,12,0.00,,,0.00,840,weatherlink.com 1.10,2013-04-30 17:30:00,
2013-04-30 11:45:00,87.2,27.0,29.57,WSW,244,1.0,12.0,11,0.00,,,0.00,863,weatherlink.com 1.10,2013-04-30 17:45:00,
2013-04-30 12:00:00,89.2,26.0,29.57,West,268,7.0,11.0,10,0.00,,,0.00,888,weatherlink.com 1.10,2013-04-30 18:00:00,
2013-04-30 12:15:00,91.5,22.0,29.56,West,280,5.0,9.0,8,0.00,,,0.00,907,weatherlink.com 1.10,2013-04-30 18:15:00,
2013-04-30 12:30:00,91.8,25.0,29.55,WNW,286,0.0,9.0,9,0.00,,,0.00,919,weatherlink.com 1.10,2013-04-30 18:30:00,
2013-04-30 12:45:00,90.8,24.0,29.55,WSW,240,0.0,14.0,9,0.00,,,0.00,923,weatherlink.com 1.10,2013-04-30 18:45:00,
2013-04-30 13:00:00,91.4,25.0,29.54,WNW,288,1.0,16.0,9,0.00,,,0.00,925,weatherlink.com 1.10,2013-04-30 19:00:00,
2013-04-30 13:15:00,91.9,23.0,29.54,NNW,334,1.0,14.0,8,0.00,,,0.00,925,weatherlink.com 1.10,2013-04-30 19:15:00,
2013-04-30 13:30:00,91.5,25.0,29.53,SW,225,2.0,11.0,9,0.00,,,0.00,916,weatherlink.com 1.10,2013-04-30 19:30:00,
2013-04-30 13:45:00,91.7,22.0,29.53,West,260,0.0,10.0,8,0.00,,,0.00,912,weatherlink.com 1.10,2013-04-30 19:45:00,
2013-04-30 14:00:00,91.1,22.0,29.52,WSW,246,0.0,15.0,8,0.00,,,0.00,896,weatherlink.com 1.10,2013-04-30 20:00:00,
2013-04-30 14:15:00,91.3,22.0,29.52,WSW,246,3.0,20.0,8,0.00,,,0.00,879,weatherlink.com 1.10,2013-04-30 20:15:00,
2013-04-30 14:30:00,91.7,22.0,29.51,WSW,244,5.0,14.0,8,0.00,,,0.00,860,weatherlink.com 1.10,2013-04-30 20:30:00,
2013-04-30 14:45:00,92.5,23.0,29.51,West,278,1.0,15.0,8,0.00,,,0.00,828,weatherlink.com 1.10,2013-04-30 20:45:00,
2013-04-30 15:01:00,93.3,20.0,29.51,WNW,294,1.0,10.0,7,0.00,,,0.00,809,weatherlink.com 1.10,2013-04-30 21:01:00,
2013-04-30 15:16:00,91.9,23.0,29.50,SW,234,1.0,16.0,8,0.00,,,0.00,770,weatherlink.com 1.10,2013-04-30 21:16:00,
2013-04-30 15:31:00,93.1,23.0,29.50,WNW,284,1.0,17.0,8,0.00,,,0.00,735,weatherlink.com 1.10,2013-04-30 21:31:00,
2013-04-30 15:46:00,94.0,21.0,29.48,West,269,1.0,12.0,7,0.00,,,0.00,701,weatherlink.com 1.10,2013-04-30 21:46:00,
2013-04-30 16:01:00,92.8,20.0,29.49,SW,236,5.0,19.0,7,0.00,,,0.00,654,weatherlink.com 1.10,2013-04-30 22:01:00,
2013-04-30 16:16:00,90.9,22.0,29.48,SW,235,6.0,16.0,8,0.00,,,0.00,610,weatherlink.com 1.10,2013-04-30 22:16:00,
2013-04-30 16:31:00,91.7,19.0,29.48,SW,232,0.0,22.0,7,0.00,,,0.00,571,weatherlink.com 1.10,2013-04-30 22:31:00,
2013-04-30 16:46:00,91.5,19.0,29.48,WSW,254,1.0,14.0,7,0.00,,,0.00,527,weatherlink.com 1.10,2013-04-30 22:46:00,
2013-04-30 17:01:00,90.1,18.0,29.48,SW,222,6.0,17.0,7,0.00,,,0.00,473,weatherlink.com 1.10,2013-04-30 23:01:00,
2013-04-30 17:16:00,90.5,18.0,29.47,West,260,4.0,19.0,7,0.00,,,0.00,417,weatherlink.com 1.10,2013-04-30 23:16:00,
2013-04-30 17:31:00,90.6,22.0,29.47,SW,226,8.0,16.0,8,0.00,,,0.00,373,weatherlink.com 1.10,2013-04-30 23:31:00,
2013-04-30 17:46:00,90.5,21.0,29.47,West,267,6.0,15.0,8,0.00,,,0.00,322,weatherlink.com 1.10,2013-04-30 23:46:00,
2013-04-30 18:01:00,90.4,21.0,29.48,WSW,241,7.0,15.0,8,0.00,,,0.00,276,weatherlink.com 1.10,2013-05-01 00:01:00,
2013-04-30 18:16:00,89.8,21.0,29.47,WSW,248,2.0,10.0,8,0.00,,,0.00,223,weatherlink.com 1.10,2013-05-01 00:16:00,
2013-04-30 18:31:00,88.8,20.0,29.48,WNW,288,2.0,11.0,8,0.00,,,0.00,116,weatherlink.com 1.10,2013-05-01 00:31:00,
2013-04-30 18:45:00,87.9,20.0,29.48,WNW,288,0.0,10.0,8,0.00,,,0.00,39,weatherlink.com 1.10,2013-05-01 00:45:00,
2013-04-30 19:00:00,87.3,22.0,29.48,WNW,288,0.0,12.0,9,0.00,,,0.00,32,weatherlink.com 1.10,2013-05-01 01:00:00,
2013-04-30 19:16:00,86.7,21.0,29.48,WNW,284,0.0,11.0,9,0.00,,,0.00,23,weatherlink.com 1.10,2013-05-01 01:16:00,
2013-04-30 19:31:00,86.1,21.0,29.48,WSW,241,0.0,11.0,9,0.00,,,0.00,12,weatherlink.com 1.10,2013-05-01 01:31:00,
2013-04-30 19:46:00,85.5,20.0,29.48,WSW,245,0.0,5.0,9,0.00,,,0.00,0,weatherlink.com 1.10,2013-05-01 01:46:00,
2013-04-30 20:01:00,85.0,20.0,29.49,WSW,244,0.0,2.0,9,0.00,,,0.00,0,weatherlink.com 1.10,2013-05-01 02:01:00,
2013-04-30 20:16:00,84.5,20.0,29.49,WSW,241,0.0,6.0,9,0.00,,,0.00,0,weatherlink.com 1.10,2013-05-01 02:16:00,
2013-04-30 20:31:00,83.2,21.0,29.50,WSW,242,0.0,1.0,10,0.00,,,0.00,0,weatherlink.com 1.10,2013-05-01 02:31:00,
2013-04-30 20:46:00,81.9,22.0,29.50,WSW,242,0.0,0.0,11,0.00,,,0.00,0,weatherlink.com 1.10,2013-05-01 02:46:00,
2013-04-30 21:01:00,81.5,20.0,29.51,WSW,242,2.0,3.0,10,0.00,,,0.00,0,weatherlink.com 1.10,2013-05-01 03:01:00,
2013-04-30 21:16:00,81.8,20.0,29.52,WSW,242,0.0,3.0,10,0.00,,,0.00,0,weatherlink.com 1.10,2013-05-01 03:16:00,
2013-04-30 21:31:00,80.6,21.0,29.52,WSW,241,0.0,1.0,11,0.00,,,0.00,0,weatherlink.com 1.10,2013-05-01 03:31:00,
2013-04-30 21:46:00,79.0,22.0,29.53,WSW,241,0.0,0.0,12,0.00,,,0.00,0,weatherlink.com 1.10,2013-05-01 03:46:00,
2013-04-30 22:01:00,78.2,23.0,29.53,WSW,241,0.0,1.0,13,0.00,,,0.00,0,weatherlink.com 1.10,2013-05-01 04:01:00,
2013-04-30 22:16:00,77.6,23.0,29.53,WSW,242,0.0,0.0,13,0.00,,,0.00,0,weatherlink.com 1.10,2013-05-01 04:16:00,
2013-04-30 22:31:00,77.2,23.0,29.53,WSW,242,0.0,1.0,13,0.00,,,0.00,0,weatherlink.com 1.10,2013-05-01 04:31:00,
2013-04-30 22:46:00,77.7,21.0,29.53,WSW,242,0.0,1.0,12,0.00,,,0.00,0,weatherlink.com 1.10,2013-05-01 04:46:00,
2013-04-30 23:01:00,77.6,21.0,29.53,WSW,242,0.0,1.0,12,0.00,,,0.00,0,weatherlink.com 1.10,2013-05-01 05:01:00,
2013-04-30 23:16:00,76.6,22.0,29.53,WSW,241,0.0,0.0,13,0.00,,,0.00,0,weatherlink.com 1.10,2013-05-01 05:16:00,
2013-04-30 23:31:00,75.4,23.0,29.53,WSW,242,0.0,0.0,14,0.00,,,0.00,0,weatherlink.com 1.10,2013-05-01 05:31:00,
2013-04-30 23:46:00,74.7,22.0,29.54,WSW,241,0.0,0.0,14,0.00,,,0.00,0,weatherlink.com 1.10,2013-05-01 05:46:00,